ADDS TAF Board (Experimental) INFO

IDs: Format: Expanded Condensed

Updated at: 0447 UTC 31 Oct 2014

KPIT - Pittsburgh Intl, PA, US

Issued at 0230 UTC 31 Oct 2014
Time0351Z31/05Z31/06Z31/07Z31/08Z31/09Z31/10Z31/11Z31/12Z31/13Z31/14Z31/15Z31/16Z31/17Z
TypeOBSPRVLPRVLPRVLPRVLPRVLPRVLPRVLPRVLPRVLPRVLPRVLPRVLPRVL
VIS10>6>6>6>6>6>6>6>6>6>6>6>6>6
CIG4740404040404040404040404040
CoverOVCOVCOVCOVCOVCOVCOVCOVCOVCOVCOVCOVCOVCOVC
FltCat--VFRVFRVFRVFRVFRVFRVFRVFRVFRVFRVFRVFRVFR
WX----------------------------
WDirVRB260260260260200200200200200200200200200
WSpd03333333333333
WGst----------------------------
R10/28
XWndVRB-1-1-1-1-3-3-3-3-3-3-3-3-3
HWndVRB-3-3-3-3-1-1-1-1-1-1-1-1-1
R14/32
XWndVRB-2-2-2-2-3-3-3-3-3-3-3-3-3
HWndVRB-2-2-2-2111111111
Raw TAF
KPIT 310230Z 3103/0106 26003KT P6SM OVC040
  FM310900 20003KT P6SM OVC040
  FM311800 19005KT 4SM -RA OVC025


Raw METAR
KPIT 310351Z 00000KT 10SM OVC047 07/02 A3003 RMK AO2 SLP182 T00720022

TAF Board Legend

Hazard VFR MVFR IFR LIFR
Visibility (sm) >5 3≤X≤5 1≤X<3 <1
Ceiling (100 ft) >30 10≤X≤30 5≤X<10 <5
Wind Speed (kt) <10 10≤X<20 20≤X<30 ≥30
Wind Gust (kt) <15 15≤X<25 25≤X<35 ≥35
Weather No Wx Reported VCTS,-TS,-FZRA TS,FZRA +TS,+FZRA


Page loaded:  04:47 UTC  |   09:47 PM Pacific  |   10:47 PM Mountain  |   11:47 PM Central  |   12:47 AM Eastern

 

ADVISORIES

FORECASTS

FORECASTS

OBSERVATIONS

USER TOOLS

ABOUT US